sensor_id;sensor_type;location;lat;lon;timestamp;temperature;humidity
23540;DHT22;11947;50.810;4.394;2023-08-17T00:00:24;21.00;99.90
23540;DHT22;11947;50.810;4.394;2023-08-17T00:02:50;21.00;99.90
23540;DHT22;11947;50.810;4.394;2023-08-17T00:05:15;20.90;99.90
23540;DHT22;11947;50.810;4.394;2023-08-17T00:07:41;20.90;99.90
23540;DHT22;11947;50.810;4.394;2023-08-17T00:10:07;20.80;99.90
23540;DHT22;11947;50.810;4.394;2023-08-17T00:12:33;20.70;99.90
23540;DHT22;11947;50.810;4.394;2023-08-17T00:14:58;20.50;99.90
23540;DHT22;11947;50.810;4.394;2023-08-17T00:17:24;20.50;99.90
23540;DHT22;11947;50.810;4.394;2023-08-17T00:19:49;20.50;99.90
23540;DHT22;11947;50.810;4.394;2023-08-17T00:22:15;20.40;99.90
23540;DHT22;11947;50.810;4.394;2023-08-17T00:24:42;20.40;99.90
23540;DHT22;11947;50.810;4.394;2023-08-17T00:27:10;20.20;99.90
23540;DHT22;11947;50.810;4.394;2023-08-17T00:29:36;20.10;99.90
23540;DHT22;11947;50.810;4.394;2023-08-17T00:32:02;20.10;99.90
23540;DHT22;11947;50.810;4.394;2023-08-17T00:34:31;20.00;99.90
23540;DHT22;11947;50.810;4.394;2023-08-17T00:36:57;19.90;99.90
23540;DHT22;11947;50.810;4.394;2023-08-17T00:39:23;20.00;99.90
23540;DHT22;11947;50.810;4.394;2023-08-17T00:41:48;19.90;99.90
23540;DHT22;11947;50.810;4.394;2023-08-17T00:44:14;19.90;99.90
23540;DHT22;11947;50.810;4.394;2023-08-17T00:46:39;19.90;99.90
23540;DHT22;11947;50.810;4.394;2023-08-17T00:49:06;19.90;99.90
23540;DHT22;11947;50.810;4.394;2023-08-17T00:51:33;19.80;99.90
23540;DHT22;11947;50.810;4.394;2023-08-17T00:54:00;19.80;99.90
23540;DHT22;11947;50.810;4.394;2023-08-17T00:56:26;19.80;99.90
23540;DHT22;11947;50.810;4.394;2023-08-17T00:58:52;19.80;99.90
23540;DHT22;11947;50.810;4.394;2023-08-17T01:01:19;19.80;99.90
23540;DHT22;11947;50.810;4.394;2023-08-17T01:03:45;19.80;99.90
23540;DHT22;11947;50.810;4.394;2023-08-17T01:06:11;19.80;99.90
23540;DHT22;11947;50.810;4.394;2023-08-17T01:08:38;19.90;99.90
23540;DHT22;11947;50.810;4.394;2023-08-17T01:14:14;20.00;99.90
23540;DHT22;11947;50.810;4.394;2023-08-17T01:16:50;20.00;99.90
23540;DHT22;11947;50.810;4.394;2023-08-17T01:19:25;20.00;99.90
23540;DHT22;11947;50.810;4.394;2023-08-17T01:21:55;20.10;99.90
23540;DHT22;11947;50.810;4.394;2023-08-17T01:24:22;20.20;99.90
23540;DHT22;11947;50.810;4.394;2023-08-17T01:26:48;20.30;99.90
23540;DHT22;11947;50.810;4.394;2023-08-17T01:29:13;20.40;99.90
23540;DHT22;11947;50.810;4.394;2023-08-17T01:32:47;20.30;99.90
23540;DHT22;11947;50.810;4.394;2023-08-17T01:34:52;20.30;99.90
23540;DHT22;11947;50.810;4.394;2023-08-17T01:37:20;20.30;99.90
23540;DHT22;11947;50.810;4.394;2023-08-17T01:39:51;20.20;99.90
23540;DHT22;11947;50.810;4.394;2023-08-17T01:42:18;20.20;99.90
23540;DHT22;11947;50.810;4.394;2023-08-17T01:44:45;20.20;99.90
23540;DHT22;11947;50.810;4.394;2023-08-17T01:47:10;20.20;99.90
23540;DHT22;11947;50.810;4.394;2023-08-17T01:49:36;20.30;99.90
23540;DHT22;11947;50.810;4.394;2023-08-17T01:52:02;20.30;99.90
23540;DHT22;11947;50.810;4.394;2023-08-17T01:54:28;20.20;99.90
23540;DHT22;11947;50.810;4.394;2023-08-17T01:56:54;20.30;99.90
23540;DHT22;11947;50.810;4.394;2023-08-17T01:59:19;20.30;99.90
23540;DHT22;11947;50.810;4.394;2023-08-17T02:01:45;20.40;99.90
23540;DHT22;11947;50.810;4.394;2023-08-17T02:04:11;20.40;99.90
23540;DHT22;11947;50.810;4.394;2023-08-17T02:06:36;20.30;99.90
23540;DHT22;11947;50.810;4.394;2023-08-17T02:09:02;20.40;99.90
23540;DHT22;11947;50.810;4.394;2023-08-17T02:11:28;20.30;99.90
23540;DHT22;11947;50.810;4.394;2023-08-17T02:13:53;20.30;99.90
23540;DHT22;11947;50.810;4.394;2023-08-17T02:16:19;20.20;99.90
23540;DHT22;11947;50.810;4.394;2023-08-17T02:18:44;20.30;99.90
23540;DHT22;11947;50.810;4.394;2023-08-17T02:21:10;20.30;99.90
23540;DHT22;11947;50.810;4.394;2023-08-17T02:23:36;20.20;99.90
23540;DHT22;11947;50.810;4.394;2023-08-17T02:26:01;20.10;99.90
23540;DHT22;11947;50.810;4.394;2023-08-17T02:28:27;20.00;99.90
23540;DHT22;11947;50.810;4.394;2023-08-17T02:30:56;19.90;99.90
23540;DHT22;11947;50.810;4.394;2023-08-17T02:33:23;20.10;99.90
23540;DHT22;11947;50.810;4.394;2023-08-17T02:35:50;20.10;99.90
23540;DHT22;11947;50.810;4.394;2023-08-17T02:38:16;20.00;99.90
23540;DHT22;11947;50.810;4.394;2023-08-17T02:40:41;20.00;99.90
23540;DHT22;11947;50.810;4.394;2023-08-17T02:43:07;19.90;99.90
23540;DHT22;11947;50.810;4.394;2023-08-17T02:45:34;19.90;99.90
23540;DHT22;11947;50.810;4.394;2023-08-17T02:47:59;19.90;99.90
23540;DHT22;11947;50.810;4.394;2023-08-17T02:50:25;19.80;99.90
23540;DHT22;11947;50.810;4.394;2023-08-17T02:52:51;19.70;99.90
23540;DHT22;11947;50.810;4.394;2023-08-17T02:55:16;19.60;99.90
23540;DHT22;11947;50.810;4.394;2023-08-17T02:57:42;19.70;99.90
23540;DHT22;11947;50.810;4.394;2023-08-17T03:00:08;19.70;99.90
23540;DHT22;11947;50.810;4.394;2023-08-17T03:02:34;19.70;99.90
23540;DHT22;11947;50.810;4.394;2023-08-17T03:05:00;19.70;99.90
23540;DHT22;11947;50.810;4.394;2023-08-17T03:07:25;19.60;99.90
23540;DHT22;11947;50.810;4.394;2023-08-17T03:09:51;19.60;99.90
23540;DHT22;11947;50.810;4.394;2023-08-17T03:12:19;19.50;99.90
23540;DHT22;11947;50.810;4.394;2023-08-17T03:14:45;19.40;99.90
23540;DHT22;11947;50.810;4.394;2023-08-17T03:17:26;19.50;99.90
23540;DHT22;11947;50.810;4.394;2023-08-17T03:19:52;19.50;99.90
23540;DHT22;11947;50.810;4.394;2023-08-17T03:22:17;19.40;99.90
23540;DHT22;11947;50.810;4.394;2023-08-17T03:24:43;19.40;99.90
23540;DHT22;11947;50.810;4.394;2023-08-17T03:27:09;19.30;99.90
23540;DHT22;11947;50.810;4.394;2023-08-17T03:29:34;19.30;99.90
23540;DHT22;11947;50.810;4.394;2023-08-17T03:32:00;19.40;99.90
23540;DHT22;11947;50.810;4.394;2023-08-17T03:34:26;19.40;99.90
23540;DHT22;11947;50.810;4.394;2023-08-17T03:36:52;19.30;99.90
23540;DHT22;11947;50.810;4.394;2023-08-17T03:39:18;19.30;99.90
23540;DHT22;11947;50.810;4.394;2023-08-17T03:41:43;19.30;99.90
23540;DHT22;11947;50.810;4.394;2023-08-17T03:44:09;19.20;99.90
23540;DHT22;11947;50.810;4.394;2023-08-17T03:46:35;19.00;99.90
23540;DHT22;11947;50.810;4.394;2023-08-17T03:49:00;19.10;99.90
23540;DHT22;11947;50.810;4.394;2023-08-17T03:51:26;19.10;99.90
23540;DHT22;11947;50.810;4.394;2023-08-17T03:53:52;19.10;99.90
23540;DHT22;11947;50.810;4.394;2023-08-17T03:56:18;19.00;99.90
23540;DHT22;11947;50.810;4.394;2023-08-17T03:58:43;18.90;99.90
23540;DHT22;11947;50.810;4.394;2023-08-17T04:01:09;18.70;99.90
23540;DHT22;11947;50.810;4.394;2023-08-17T04:03:36;18.70;99.90
23540;DHT22;11947;50.810;4.394;2023-08-17T04:06:06;18.70;99.90
23540;DHT22;11947;50.810;4.394;2023-08-17T04:08:32;18.60;99.90
23540;DHT22;11947;50.810;4.394;2023-08-17T04:10:58;18.60;99.90
23540;DHT22;11947;50.810;4.394;2023-08-17T04:13:23;18.60;99.90
23540;DHT22;11947;50.810;4.394;2023-08-17T04:15:49;18.60;99.90
23540;DHT22;11947;50.810;4.394;2023-08-17T04:18:14;18.60;99.90
23540;DHT22;11947;50.810;4.394;2023-08-17T04:20:40;18.60;99.90
23540;DHT22;11947;50.810;4.394;2023-08-17T04:23:06;18.60;99.90
23540;DHT22;11947;50.810;4.394;2023-08-17T04:25:31;18.60;99.90
23540;DHT22;11947;50.810;4.394;2023-08-17T04:27:57;18.70;99.90
23540;DHT22;11947;50.810;4.394;2023-08-17T04:30:22;18.70;99.90
23540;DHT22;11947;50.810;4.394;2023-08-17T04:32:48;18.70;99.90
23540;DHT22;11947;50.810;4.394;2023-08-17T04:35:18;18.60;99.90
23540;DHT22;11947;50.810;4.394;2023-08-17T04:37:44;18.70;99.90
23540;DHT22;11947;50.810;4.394;2023-08-17T04:40:09;18.60;99.90
23540;DHT22;11947;50.810;4.394;2023-08-17T04:42:36;18.60;99.90
23540;DHT22;11947;50.810;4.394;2023-08-17T04:45:01;18.60;99.90
23540;DHT22;11947;50.810;4.394;2023-08-17T04:47:31;18.60;99.90
23540;DHT22;11947;50.810;4.394;2023-08-17T04:49:57;18.70;99.90
23540;DHT22;11947;50.810;4.394;2023-08-17T04:52:22;18.80;99.90
23540;DHT22;11947;50.810;4.394;2023-08-17T04:54:48;18.80;99.90
23540;DHT22;11947;50.810;4.394;2023-08-17T04:57:14;18.80;99.90
23540;DHT22;11947;50.810;4.394;2023-08-17T04:59:40;18.60;99.90
23540;DHT22;11947;50.810;4.394;2023-08-17T05:02:06;18.70;99.90
23540;DHT22;11947;50.810;4.394;2023-08-17T05:04:31;18.80;99.90
23540;DHT22;11947;50.810;4.394;2023-08-17T05:06:57;18.90;99.90
23540;DHT22;11947;50.810;4.394;2023-08-17T05:09:23;19.00;99.90
23540;DHT22;11947;50.810;4.394;2023-08-17T05:11:49;18.90;99.90
23540;DHT22;11947;50.810;4.394;2023-08-17T05:14:15;18.80;99.90
23540;DHT22;11947;50.810;4.394;2023-08-17T05:16:40;18.80;99.90
23540;DHT22;11947;50.810;4.394;2023-08-17T05:19:06;18.90;99.90
23540;DHT22;11947;50.810;4.394;2023-08-17T05:21:32;19.00;99.90
23540;DHT22;11947;50.810;4.394;2023-08-17T05:23:57;19.10;99.90
23540;DHT22;11947;50.810;4.394;2023-08-17T05:26:23;19.10;99.90
23540;DHT22;11947;50.810;4.394;2023-08-17T05:28:49;19.10;99.90
23540;DHT22;11947;50.810;4.394;2023-08-17T05:31:14;19.10;99.90
23540;DHT22;11947;50.810;4.394;2023-08-17T05:33:40;19.10;99.90
23540;DHT22;11947;50.810;4.394;2023-08-17T05:36:07;19.10;99.90
23540;DHT22;11947;50.810;4.394;2023-08-17T05:38:32;19.10;99.90
23540;DHT22;11947;50.810;4.394;2023-08-17T05:40:59;19.00;99.90
23540;DHT22;11947;50.810;4.394;2023-08-17T05:43:25;19.00;99.90
23540;DHT22;11947;50.810;4.394;2023-08-17T05:45:51;18.90;99.90
23540;DHT22;11947;50.810;4.394;2023-08-17T05:48:21;19.00;99.90
23540;DHT22;11947;50.810;4.394;2023-08-17T05:50:47;19.10;99.90
23540;DHT22;11947;50.810;4.394;2023-08-17T05:53:13;19.20;99.90
23540;DHT22;11947;50.810;4.394;2023-08-17T05:55:39;19.30;99.90
23540;DHT22;11947;50.810;4.394;2023-08-17T05:58:04;19.40;99.90
23540;DHT22;11947;50.810;4.394;2023-08-17T06:00:30;19.40;99.90
23540;DHT22;11947;50.810;4.394;2023-08-17T06:02:56;19.30;99.90
23540;DHT22;11947;50.810;4.394;2023-08-17T06:05:28;19.30;99.90
23540;DHT22;11947;50.810;4.394;2023-08-17T06:07:55;19.30;99.90
23540;DHT22;11947;50.810;4.394;2023-08-17T06:10:21;19.30;99.90
23540;DHT22;11947;50.810;4.394;2023-08-17T06:12:53;19.40;99.90
23540;DHT22;11947;50.810;4.394;2023-08-17T06:15:19;19.60;99.90
23540;DHT22;11947;50.810;4.394;2023-08-17T06:17:45;19.60;99.90
23540;DHT22;11947;50.810;4.394;2023-08-17T06:20:11;19.50;99.90
23540;DHT22;11947;50.810;4.394;2023-08-17T06:22:37;19.50;99.90
23540;DHT22;11947;50.810;4.394;2023-08-17T06:25:03;19.50;99.90
23540;DHT22;11947;50.810;4.394;2023-08-17T06:27:30;19.50;99.90
23540;DHT22;11947;50.810;4.394;2023-08-17T06:29:56;19.50;99.90
23540;DHT22;11947;50.810;4.394;2023-08-17T06:32:21;19.60;99.90
23540;DHT22;11947;50.810;4.394;2023-08-17T06:34:47;19.50;99.90
23540;DHT22;11947;50.810;4.394;2023-08-17T06:37:13;19.60;99.90
23540;DHT22;11947;50.810;4.394;2023-08-17T06:39:38;19.70;99.90
23540;DHT22;11947;50.810;4.394;2023-08-17T06:42:04;19.40;99.90
23540;DHT22;11947;50.810;4.394;2023-08-17T06:44:30;19.60;99.90
23540;DHT22;11947;50.810;4.394;2023-08-17T06:46:56;19.40;99.90
23540;DHT22;11947;50.810;4.394;2023-08-17T06:49:22;19.40;99.90
23540;DHT22;11947;50.810;4.394;2023-08-17T06:51:48;19.40;99.90
23540;DHT22;11947;50.810;4.394;2023-08-17T06:54:14;19.40;99.90
23540;DHT22;11947;50.810;4.394;2023-08-17T06:56:40;19.60;99.90
23540;DHT22;11947;50.810;4.394;2023-08-17T06:59:05;19.50;99.90
23540;DHT22;11947;50.810;4.394;2023-08-17T07:01:32;19.50;99.90
23540;DHT22;11947;50.810;4.394;2023-08-17T07:03:58;19.50;99.90
23540;DHT22;11947;50.810;4.394;2023-08-17T07:06:26;19.40;99.90
23540;DHT22;11947;50.810;4.394;2023-08-17T07:08:53;19.60;99.90
23540;DHT22;11947;50.810;4.394;2023-08-17T07:11:18;19.50;99.90
23540;DHT22;11947;50.810;4.394;2023-08-17T07:13:44;19.50;99.90
23540;DHT22;11947;50.810;4.394;2023-08-17T07:16:10;19.40;99.90
23540;DHT22;11947;50.810;4.394;2023-08-17T07:18:36;19.50;99.90
23540;DHT22;11947;50.810;4.394;2023-08-17T07:21:01;19.30;99.90
23540;DHT22;11947;50.810;4.394;2023-08-17T07:23:27;19.30;99.90
23540;DHT22;11947;50.810;4.394;2023-08-17T07:25:53;19.30;99.90
23540;DHT22;11947;50.810;4.394;2023-08-17T07:28:18;19.30;99.90
23540;DHT22;11947;50.810;4.394;2023-08-17T07:30:44;19.50;99.90
23540;DHT22;11947;50.810;4.394;2023-08-17T07:33:10;19.40;99.90
23540;DHT22;11947;50.810;4.394;2023-08-17T07:35:35;19.40;99.90
23540;DHT22;11947;50.810;4.394;2023-08-17T07:38:01;19.50;99.90
23540;DHT22;11947;50.810;4.394;2023-08-17T07:40:26;19.30;99.90
23540;DHT22;11947;50.810;4.394;2023-08-17T07:42:52;19.40;99.90
23540;DHT22;11947;50.810;4.394;2023-08-17T07:45:18;19.30;99.90
23540;DHT22;11947;50.810;4.394;2023-08-17T07:47:43;19.20;99.90
23540;DHT22;11947;50.810;4.394;2023-08-17T07:50:09;19.30;99.90
23540;DHT22;11947;50.810;4.394;2023-08-17T07:52:35;19.30;99.90
23540;DHT22;11947;50.810;4.394;2023-08-17T07:55:00;19.40;99.90
23540;DHT22;11947;50.810;4.394;2023-08-17T07:57:26;19.60;99.90
23540;DHT22;11947;50.810;4.394;2023-08-17T07:59:52;19.80;99.90
23540;DHT22;11947;50.810;4.394;2023-08-17T08:02:19;19.90;99.90
23540;DHT22;11947;50.810;4.394;2023-08-17T08:04:44;19.80;99.90
23540;DHT22;11947;50.810;4.394;2023-08-17T08:07:10;19.80;99.90
23540;DHT22;11947;50.810;4.394;2023-08-17T08:09:36;20.00;99.90
23540;DHT22;11947;50.810;4.394;2023-08-17T08:12:02;20.00;99.90
23540;DHT22;11947;50.810;4.394;2023-08-17T08:14:31;20.10;99.90
23540;DHT22;11947;50.810;4.394;2023-08-17T08:16:56;20.30;99.90
23540;DHT22;11947;50.810;4.394;2023-08-17T08:19:22;20.10;99.90
23540;DHT22;11947;50.810;4.394;2023-08-17T08:21:48;20.20;99.90
23540;DHT22;11947;50.810;4.394;2023-08-17T08:24:13;20.10;99.90
23540;DHT22;11947;50.810;4.394;2023-08-17T08:26:39;20.10;99.90
23540;DHT22;11947;50.810;4.394;2023-08-17T08:29:04;20.00;99.90
23540;DHT22;11947;50.810;4.394;2023-08-17T08:31:30;20.30;99.90
23540;DHT22;11947;50.810;4.394;2023-08-17T08:33:56;20.50;99.90
23540;DHT22;11947;50.810;4.394;2023-08-17T08:36:21;20.50;99.90
23540;DHT22;11947;50.810;4.394;2023-08-17T08:38:47;20.40;99.90
23540;DHT22;11947;50.810;4.394;2023-08-17T08:41:13;20.50;99.90
23540;DHT22;11947;50.810;4.394;2023-08-17T08:43:39;20.50;99.90
23540;DHT22;11947;50.810;4.394;2023-08-17T08:46:05;20.50;99.90
23540;DHT22;11947;50.810;4.394;2023-08-17T08:48:32;20.50;99.90
23540;DHT22;11947;50.810;4.394;2023-08-17T08:51:00;20.60;99.90
23540;DHT22;11947;50.810;4.394;2023-08-17T08:53:38;20.70;99.90
23540;DHT22;11947;50.810;4.394;2023-08-17T08:56:11;20.80;99.90
23540;DHT22;11947;50.810;4.394;2023-08-17T08:58:38;20.80;99.90
23540;DHT22;11947;50.810;4.394;2023-08-17T09:01:07;20.80;99.90
23540;DHT22;11947;50.810;4.394;2023-08-17T09:03:35;20.90;99.90
23540;DHT22;11947;50.810;4.394;2023-08-17T09:06:00;21.10;99.90
23540;DHT22;11947;50.810;4.394;2023-08-17T09:08:29;21.10;99.90
23540;DHT22;11947;50.810;4.394;2023-08-17T09:10:55;21.30;99.90
23540;DHT22;11947;50.810;4.394;2023-08-17T09:13:21;21.50;99.90
23540;DHT22;11947;50.810;4.394;2023-08-17T09:15:46;21.60;99.90
23540;DHT22;11947;50.810;4.394;2023-08-17T09:18:12;22.00;99.90
23540;DHT22;11947;50.810;4.394;2023-08-17T09:20:46;22.20;99.90
23540;DHT22;11947;50.810;4.394;2023-08-17T09:25:50;23.10;99.90
23540;DHT22;11947;50.810;4.394;2023-08-17T09:28:18;23.30;99.90
23540;DHT22;11947;50.810;4.394;2023-08-17T09:30:57;23.20;99.90
23540;DHT22;11947;50.810;4.394;2023-08-17T09:33:27;23.10;99.90
23540;DHT22;11947;50.810;4.394;2023-08-17T09:35:54;22.80;99.90
23540;DHT22;11947;50.810;4.394;2023-08-17T09:38:20;22.70;99.90
23540;DHT22;11947;50.810;4.394;2023-08-17T09:40:47;22.90;99.90
23540;DHT22;11947;50.810;4.394;2023-08-17T09:43:14;23.20;99.90
23540;DHT22;11947;50.810;4.394;2023-08-17T09:45:40;23.30;99.90
23540;DHT22;11947;50.810;4.394;2023-08-17T09:48:07;23.20;99.90
23540;DHT22;11947;50.810;4.394;2023-08-17T09:50:36;23.20;99.90
23540;DHT22;11947;50.810;4.394;2023-08-17T09:53:05;23.40;99.90
23540;DHT22;11947;50.810;4.394;2023-08-17T09:55:31;23.50;99.90
23540;DHT22;11947;50.810;4.394;2023-08-17T09:58:00;23.60;99.90
23540;DHT22;11947;50.810;4.394;2023-08-17T10:00:27;23.60;99.90
23540;DHT22;11947;50.810;4.394;2023-08-17T10:02:53;23.70;99.90
23540;DHT22;11947;50.810;4.394;2023-08-17T10:05:20;23.80;99.90
23540;DHT22;11947;50.810;4.394;2023-08-17T10:07:57;23.60;99.90
23540;DHT22;11947;50.810;4.394;2023-08-17T10:10:27;23.40;99.90
23540;DHT22;11947;50.810;4.394;2023-08-17T10:13:09;23.70;99.90
23540;DHT22;11947;50.810;4.394;2023-08-17T10:15:38;23.70;99.90
23540;DHT22;11947;50.810;4.394;2023-08-17T10:18:21;23.60;99.90
23540;DHT22;11947;50.810;4.394;2023-08-17T10:20:58;23.60;99.90
23540;DHT22;11947;50.810;4.394;2023-08-17T10:23:27;23.70;99.90
23540;DHT22;11947;50.810;4.394;2023-08-17T10:25:54;23.60;99.90
23540;DHT22;11947;50.810;4.394;2023-08-17T10:28:23;23.60;99.90
23540;DHT22;11947;50.810;4.394;2023-08-17T10:30:50;23.60;99.90
23540;DHT22;11947;50.810;4.394;2023-08-17T10:33:16;23.70;99.90
23540;DHT22;11947;50.810;4.394;2023-08-17T10:35:43;23.60;99.90
23540;DHT22;11947;50.810;4.394;2023-08-17T10:38:10;23.60;99.90
23540;DHT22;11947;50.810;4.394;2023-08-17T10:40:39;23.70;99.90
23540;DHT22;11947;50.810;4.394;2023-08-17T10:43:05;23.50;99.90
23540;DHT22;11947;50.810;4.394;2023-08-17T10:45:35;23.40;99.90
23540;DHT22;11947;50.810;4.394;2023-08-17T10:50:36;23.70;99.90
23540;DHT22;11947;50.810;4.394;2023-08-17T10:53:10;23.60;99.90
23540;DHT22;11947;50.810;4.394;2023-08-17T10:55:41;23.50;99.90
23540;DHT22;11947;50.810;4.394;2023-08-17T10:58:07;23.30;99.90
23540;DHT22;11947;50.810;4.394;2023-08-17T11:00:43;23.60;99.90
23540;DHT22;11947;50.810;4.394;2023-08-17T11:03:17;23.80;99.90
23540;DHT22;11947;50.810;4.394;2023-08-17T11:05:44;23.70;99.90
23540;DHT22;11947;50.810;4.394;2023-08-17T11:08:19;23.80;99.90
23540;DHT22;11947;50.810;4.394;2023-08-17T11:10:57;23.60;99.90
23540;DHT22;11947;50.810;4.394;2023-08-17T11:13:26;23.20;99.90
23540;DHT22;11947;50.810;4.394;2023-08-17T11:15:52;23.20;99.90
23540;DHT22;11947;50.810;4.394;2023-08-17T11:18:18;22.70;99.90
23540;DHT22;11947;50.810;4.394;2023-08-17T11:20:43;22.80;99.90
23540;DHT22;11947;50.810;4.394;2023-08-17T11:23:10;22.90;99.90
23540;DHT22;11947;50.810;4.394;2023-08-17T11:25:37;22.90;99.90
23540;DHT22;11947;50.810;4.394;2023-08-17T11:28:04;23.10;99.90
23540;DHT22;11947;50.810;4.394;2023-08-17T11:30:31;23.20;99.90
23540;DHT22;11947;50.810;4.394;2023-08-17T11:32:59;23.20;99.90
23540;DHT22;11947;50.810;4.394;2023-08-17T11:35:25;23.10;99.90
23540;DHT22;11947;50.810;4.394;2023-08-17T11:37:51;23.60;99.90
23540;DHT22;11947;50.810;4.394;2023-08-17T11:40:17;24.00;99.90
23540;DHT22;11947;50.810;4.394;2023-08-17T11:42:44;24.40;99.90
23540;DHT22;11947;50.810;4.394;2023-08-17T11:45:10;24.80;99.90
23540;DHT22;11947;50.810;4.394;2023-08-17T11:47:38;25.00;99.90
23540;DHT22;11947;50.810;4.394;2023-08-17T11:50:04;25.20;99.90
23540;DHT22;11947;50.810;4.394;2023-08-17T11:52:31;24.90;99.90
23540;DHT22;11947;50.810;4.394;2023-08-17T11:55:05;25.10;99.90
23540;DHT22;11947;50.810;4.394;2023-08-17T11:57:32;25.00;99.90
23540;DHT22;11947;50.810;4.394;2023-08-17T11:59:59;24.40;99.90
23540;DHT22;11947;50.810;4.394;2023-08-17T12:02:26;24.40;99.90
23540;DHT22;11947;50.810;4.394;2023-08-17T12:04:53;24.20;99.90
23540;DHT22;11947;50.810;4.394;2023-08-17T12:07:19;23.80;99.90
23540;DHT22;11947;50.810;4.394;2023-08-17T12:09:48;23.50;99.90
23540;DHT22;11947;50.810;4.394;2023-08-17T12:12:18;23.40;99.90
23540;DHT22;11947;50.810;4.394;2023-08-17T12:14:46;23.20;99.90
23540;DHT22;11947;50.810;4.394;2023-08-17T12:17:19;23.00;99.90
23540;DHT22;11947;50.810;4.394;2023-08-17T12:19:49;22.80;99.90
23540;DHT22;11947;50.810;4.394;2023-08-17T12:22:15;22.70;99.90
23540;DHT22;11947;50.810;4.394;2023-08-17T12:24:41;22.80;99.90
23540;DHT22;11947;50.810;4.394;2023-08-17T12:27:07;22.90;99.90
23540;DHT22;11947;50.810;4.394;2023-08-17T12:29:33;22.90;99.90
23540;DHT22;11947;50.810;4.394;2023-08-17T12:32:01;23.00;99.90
23540;DHT22;11947;50.810;4.394;2023-08-17T12:34:26;22.90;99.90
23540;DHT22;11947;50.810;4.394;2023-08-17T12:36:52;22.80;99.90
23540;DHT22;11947;50.810;4.394;2023-08-17T12:39:18;22.60;99.90
23540;DHT22;11947;50.810;4.394;2023-08-17T12:41:43;22.60;99.90
23540;DHT22;11947;50.810;4.394;2023-08-17T12:44:10;22.40;99.90
23540;DHT22;11947;50.810;4.394;2023-08-17T12:46:40;22.40;99.90
23540;DHT22;11947;50.810;4.394;2023-08-17T12:49:06;22.30;99.90
23540;DHT22;11947;50.810;4.394;2023-08-17T12:51:31;22.50;99.90
23540;DHT22;11947;50.810;4.394;2023-08-17T12:53:57;22.40;99.90
23540;DHT22;11947;50.810;4.394;2023-08-17T12:56:23;22.80;99.90
23540;DHT22;11947;50.810;4.394;2023-08-17T12:58:48;22.80;99.90
23540;DHT22;11947;50.810;4.394;2023-08-17T13:01:14;23.00;99.90
23540;DHT22;11947;50.810;4.394;2023-08-17T13:03:40;22.80;99.90
23540;DHT22;11947;50.810;4.394;2023-08-17T13:06:06;22.90;99.90
23540;DHT22;11947;50.810;4.394;2023-08-17T13:08:32;22.90;99.90
23540;DHT22;11947;50.810;4.394;2023-08-17T13:10:58;22.80;99.90
23540;DHT22;11947;50.810;4.394;2023-08-17T13:13:23;22.90;99.90
23540;DHT22;11947;50.810;4.394;2023-08-17T13:15:49;23.00;99.90
23540;DHT22;11947;50.810;4.394;2023-08-17T13:18:15;22.90;99.90
23540;DHT22;11947;50.810;4.394;2023-08-17T13:20:41;23.20;99.90
23540;DHT22;11947;50.810;4.394;2023-08-17T13:23:07;23.50;99.90
23540;DHT22;11947;50.810;4.394;2023-08-17T13:25:32;23.70;99.90
23540;DHT22;11947;50.810;4.394;2023-08-17T13:27:58;23.90;99.90
23540;DHT22;11947;50.810;4.394;2023-08-17T13:30:24;24.00;99.90
23540;DHT22;11947;50.810;4.394;2023-08-17T13:32:50;23.80;99.90
23540;DHT22;11947;50.810;4.394;2023-08-17T13:35:16;23.50;99.90
23540;DHT22;11947;50.810;4.394;2023-08-17T13:37:42;23.40;99.90
23540;DHT22;11947;50.810;4.394;2023-08-17T13:40:08;23.70;99.90
23540;DHT22;11947;50.810;4.394;2023-08-17T13:42:34;23.80;99.90
23540;DHT22;11947;50.810;4.394;2023-08-17T13:45:00;23.70;99.90
23540;DHT22;11947;50.810;4.394;2023-08-17T13:47:26;23.60;99.90
23540;DHT22;11947;50.810;4.394;2023-08-17T13:49:51;23.70;99.90
23540;DHT22;11947;50.810;4.394;2023-08-17T13:52:17;23.70;99.90
23540;DHT22;11947;50.810;4.394;2023-08-17T13:54:43;23.60;99.90
23540;DHT22;11947;50.810;4.394;2023-08-17T13:57:09;23.40;99.90
23540;DHT22;11947;50.810;4.394;2023-08-17T13:59:34;23.30;99.90
23540;DHT22;11947;50.810;4.394;2023-08-17T14:02:00;23.10;99.90
23540;DHT22;11947;50.810;4.394;2023-08-17T14:04:26;23.10;99.90
23540;DHT22;11947;50.810;4.394;2023-08-17T14:06:51;23.20;99.90
23540;DHT22;11947;50.810;4.394;2023-08-17T14:09:17;23.30;99.90
23540;DHT22;11947;50.810;4.394;2023-08-17T14:11:43;23.40;99.90
23540;DHT22;11947;50.810;4.394;2023-08-17T14:14:08;23.40;99.90
23540;DHT22;11947;50.810;4.394;2023-08-17T14:16:36;23.50;99.90
23540;DHT22;11947;50.810;4.394;2023-08-17T14:19:02;23.40;99.90
23540;DHT22;11947;50.810;4.394;2023-08-17T14:21:27;23.40;99.90
23540;DHT22;11947;50.810;4.394;2023-08-17T14:23:53;23.30;99.90
23540;DHT22;11947;50.810;4.394;2023-08-17T14:26:19;23.30;99.90
23540;DHT22;11947;50.810;4.394;2023-08-17T14:28:44;23.40;99.90
23540;DHT22;11947;50.810;4.394;2023-08-17T14:31:10;23.40;99.90
23540;DHT22;11947;50.810;4.394;2023-08-17T14:33:41;23.20;99.90
23540;DHT22;11947;50.810;4.394;2023-08-17T14:36:06;23.10;99.90
23540;DHT22;11947;50.810;4.394;2023-08-17T14:38:32;23.00;99.90
23540;DHT22;11947;50.810;4.394;2023-08-17T14:40:58;22.90;99.90
23540;DHT22;11947;50.810;4.394;2023-08-17T14:43:23;22.60;99.90
23540;DHT22;11947;50.810;4.394;2023-08-17T14:45:49;22.70;99.90
23540;DHT22;11947;50.810;4.394;2023-08-17T14:48:15;22.50;99.90
23540;DHT22;11947;50.810;4.394;2023-08-17T14:50:40;22.50;99.90
23540;DHT22;11947;50.810;4.394;2023-08-17T14:53:06;22.50;99.90
23540;DHT22;11947;50.810;4.394;2023-08-17T14:55:33;22.30;99.90
23540;DHT22;11947;50.810;4.394;2023-08-17T14:57:59;22.40;99.90
23540;DHT22;11947;50.810;4.394;2023-08-17T15:00:25;22.40;99.90
23540;DHT22;11947;50.810;4.394;2023-08-17T15:02:55;22.40;99.90
23540;DHT22;11947;50.810;4.394;2023-08-17T15:05:21;22.50;99.90
23540;DHT22;11947;50.810;4.394;2023-08-17T15:07:47;22.70;99.90
23540;DHT22;11947;50.810;4.394;2023-08-17T15:10:13;22.60;99.90
23540;DHT22;11947;50.810;4.394;2023-08-17T15:12:39;22.70;99.90
23540;DHT22;11947;50.810;4.394;2023-08-17T15:15:05;22.60;99.90
23540;DHT22;11947;50.810;4.394;2023-08-17T15:17:31;22.70;99.90
23540;DHT22;11947;50.810;4.394;2023-08-17T15:19:58;22.70;99.90
23540;DHT22;11947;50.810;4.394;2023-08-17T15:22:24;22.50;99.90
23540;DHT22;11947;50.810;4.394;2023-08-17T15:24:50;22.40;99.90
23540;DHT22;11947;50.810;4.394;2023-08-17T15:27:16;22.60;99.90
23540;DHT22;11947;50.810;4.394;2023-08-17T15:29:41;22.80;99.90
23540;DHT22;11947;50.810;4.394;2023-08-17T15:32:07;23.00;99.90
23540;DHT22;11947;50.810;4.394;2023-08-17T15:34:33;23.10;99.90